createdAt,value
2019-03-06T00:03:05.069Z,11.3
2019-03-06T00:08:05.050Z,11.3
2019-03-06T00:13:05.071Z,11.4
2019-03-06T00:18:05.037Z,11.4
2019-03-06T00:23:05.098Z,11.5
2019-03-06T00:28:05.059Z,11.5
2019-03-06T00:33:05.047Z,11.5
2019-03-06T00:38:05.028Z,11.6
2019-03-06T00:43:05.015Z,11.5
2019-03-06T00:48:05.016Z,11.5
2019-03-06T00:53:05.027Z,11.5
2019-03-06T00:58:05.033Z,11.5
2019-03-06T01:03:05.040Z,11.5
2019-03-06T01:08:04.971Z,11.5
2019-03-06T01:13:05.819Z,11.4
2019-03-06T01:18:05.006Z,11.4
2019-03-06T01:23:04.960Z,11.4
2019-03-06T01:28:04.983Z,11.4
2019-03-06T01:33:04.990Z,11.4
2019-03-06T01:38:04.950Z,11.4
2019-03-06T01:43:04.971Z,11.3
2019-03-06T01:48:04.986Z,11.3
2019-03-06T01:53:04.918Z,11.4
2019-03-06T01:58:04.984Z,11.3
2019-03-06T02:03:04.924Z,11.3
2019-03-06T02:08:04.909Z,11.3
2019-03-06T02:13:04.963Z,11.3
2019-03-06T02:18:04.937Z,11.3
2019-03-06T02:23:04.916Z,11.3
2019-03-06T02:28:04.896Z,11.3
2019-03-06T02:33:04.938Z,11.3
2019-03-06T02:38:04.935Z,11.2
2019-03-06T02:43:04.891Z,11
2019-03-06T02:48:04.910Z,10.8
2019-03-06T02:53:04.899Z,10.9
2019-03-06T02:58:05.677Z,11
2019-03-06T03:03:04.866Z,11.1
2019-03-06T03:08:04.893Z,11.1
2019-03-06T03:13:04.824Z,11.1
2019-03-06T03:18:04.883Z,11.1
2019-03-06T03:23:04.838Z,11.1
2019-03-06T03:28:04.836Z,11.1
2019-03-06T03:33:04.955Z,11.1
2019-03-06T03:38:04.842Z,11.1
2019-03-06T03:43:04.815Z,11.1
2019-03-06T03:48:05.553Z,11.1
2019-03-06T03:53:05.604Z,11.1
2019-03-06T03:58:05.615Z,11.1
2019-03-06T04:03:05.541Z,11.1
2019-03-06T04:08:05.556Z,11
2019-03-06T04:12:06.459Z,11
2019-03-06T04:17:06.403Z,11
2019-03-06T04:22:08.442Z,11
2019-03-06T04:27:06.420Z,11
2019-03-06T04:32:06.878Z,11
2019-03-06T04:37:06.406Z,11
2019-03-06T04:42:06.400Z,11
2019-03-06T04:47:06.351Z,11
2019-03-06T04:52:06.345Z,11
2019-03-06T04:57:06.383Z,11
2019-03-06T05:02:06.334Z,11.1
2019-03-06T05:07:06.309Z,11.1
2019-03-06T05:12:06.368Z,11.1
2019-03-06T05:17:06.324Z,11.2
2019-03-06T05:22:06.288Z,11.2
2019-03-06T05:27:06.254Z,11.2
2019-03-06T05:32:06.599Z,11.1
2019-03-06T05:37:06.283Z,10.9
2019-03-06T05:42:06.339Z,10.8
2019-03-06T05:47:06.292Z,11
2019-03-06T05:52:06.349Z,11.3
2019-03-06T05:57:06.252Z,11.4
2019-03-06T06:02:06.273Z,11.6
2019-03-06T06:07:06.272Z,11.6
2019-03-06T06:12:06.284Z,11.7
2019-03-06T06:17:07.717Z,11.8
2019-03-06T06:22:07.797Z,11.9
2019-03-06T06:27:07.815Z,11.9
2019-03-06T06:32:07.809Z,12
2019-03-06T06:37:07.773Z,12.1
2019-03-06T06:42:07.772Z,12.2
2019-03-06T06:47:07.796Z,12.2
2019-03-06T06:57:07.986Z,12.3
2019-03-06T07:02:08.008Z,12.5
2019-03-06T07:07:08.023Z,12.5
2019-03-06T07:12:08.004Z,12.6
2019-03-06T07:17:08.748Z,12.7
2019-03-06T07:22:08.814Z,12.7
2019-03-06T07:27:08.693Z,12.8
2019-03-06T07:32:08.710Z,12.8
2019-03-06T07:37:08.728Z,12.8
2019-03-06T07:42:08.773Z,12.9
2019-03-06T07:47:09.109Z,12.9
2019-03-06T07:52:08.709Z,12.9
2019-03-06T07:57:08.729Z,13
2019-03-06T08:02:08.694Z,12.9
2019-03-06T08:07:08.722Z,13
2019-03-06T08:12:08.728Z,13
2019-03-06T08:17:08.655Z,13
2019-03-06T08:22:08.660Z,13
2019-03-06T08:27:08.656Z,13.1
2019-03-06T08:32:08.655Z,13.2
2019-03-06T08:37:08.665Z,13.4
2019-03-06T08:42:08.708Z,13.3
2019-03-06T08:47:08.613Z,13.2
2019-03-06T08:52:08.641Z,13.3
2019-03-06T08:57:08.654Z,13.4
2019-03-06T09:02:16.044Z,13.3
2019-03-06T09:07:08.654Z,13.4
2019-03-06T09:12:08.626Z,13.4
2019-03-06T09:17:08.919Z,13.4
2019-03-06T09:22:08.597Z,13.4
2019-03-06T09:27:08.594Z,13.4
2019-03-06T09:32:08.611Z,13.3
2019-03-06T09:37:08.581Z,13.1
2019-03-06T09:42:08.585Z,13.1
2019-03-06T09:47:08.584Z,13
2019-03-06T09:52:08.551Z,13
2019-03-06T09:57:08.609Z,13
2019-03-06T10:02:08.584Z,12.9
2019-03-06T10:07:08.524Z,12.9
2019-03-06T10:12:08.632Z,12.8
2019-03-06T10:17:08.565Z,12.7
2019-03-06T10:22:08.559Z,12.7
2019-03-06T10:27:09.115Z,12.7
2019-03-06T10:32:08.570Z,12.9
2019-03-06T10:37:09.041Z,13.5
2019-03-06T10:42:09.119Z,13.7
2019-03-06T10:47:09.394Z,13.5
2019-03-06T10:52:09.082Z,13.4
2019-03-06T10:57:09.008Z,13.2
2019-03-06T11:02:08.877Z,13.3
2019-03-06T11:07:09.156Z,13.4
2019-03-06T11:12:09.273Z,13.3
2019-03-06T11:17:09.021Z,13.2
2019-03-06T11:22:08.490Z,13.1
2019-03-06T11:27:08.495Z,13.1
2019-03-06T11:32:12.787Z,13
2019-03-06T11:37:08.435Z,13
2019-03-06T11:42:08.502Z,13
2019-03-06T11:47:09.218Z,13
2019-03-06T11:52:08.493Z,12.9
2019-03-06T11:57:08.464Z,12.9
2019-03-06T12:02:09.051Z,12.8
2019-03-06T12:07:08.451Z,12.7
2019-03-06T12:12:08.394Z,12.7
2019-03-06T12:17:09.039Z,12.6
2019-03-06T12:22:08.494Z,12.6
2019-03-06T12:27:08.444Z,12.6
2019-03-06T12:32:08.407Z,12.6
2019-03-06T12:37:09.698Z,12.5
2019-03-06T12:42:15.301Z,12.5
2019-03-06T12:47:08.373Z,12.5
2019-03-06T12:52:08.340Z,12.4
2019-03-06T12:57:08.399Z,12.4
2019-03-06T13:02:08.358Z,12.4
2019-03-06T13:07:08.388Z,12.5
2019-03-06T13:12:08.386Z,12.6
2019-03-06T13:17:08.356Z,12.7
2019-03-06T13:22:13.092Z,12.7
2019-03-06T13:27:08.384Z,12.7
2019-03-06T13:32:12.552Z,12.6
2019-03-06T13:37:08.789Z,12.6
2019-03-06T13:42:08.463Z,12.5
2019-03-06T13:47:08.309Z,12.5
2019-03-06T13:52:08.332Z,12.4
2019-03-06T13:57:08.317Z,12.5
2019-03-06T14:02:08.314Z,12.4
2019-03-06T14:07:08.321Z,12.4
2019-03-06T14:12:08.371Z,12.3
2019-03-06T14:17:08.277Z,12.3
2019-03-06T14:22:08.313Z,12.3
2019-03-06T14:27:08.245Z,12.3
2019-03-06T14:32:15.223Z,12.3
2019-03-06T14:37:08.242Z,12.3
2019-03-06T14:42:08.304Z,12.2
2019-03-06T14:47:08.747Z,12.2
2019-03-06T14:52:08.277Z,12.2
2019-03-06T14:57:08.242Z,12.1
2019-03-06T15:02:08.228Z,12.1
2019-03-06T15:07:08.256Z,12.1
2019-03-06T15:12:08.244Z,12.2
2019-03-06T15:17:08.248Z,12.2
2019-03-06T15:22:08.215Z,12.2
2019-03-06T15:27:08.926Z,12.1
2019-03-06T15:32:08.202Z,12.1
2019-03-06T15:37:08.226Z,12.1
2019-03-06T15:42:08.177Z,12.1
2019-03-06T15:47:08.179Z,12
2019-03-06T15:52:08.194Z,12.1
2019-03-06T15:57:10.401Z,12
2019-03-06T16:02:08.142Z,12
2019-03-06T16:07:08.964Z,12
2019-03-06T16:12:08.163Z,12
2019-03-06T16:17:08.141Z,12
2019-03-06T16:22:08.136Z,12
2019-03-06T16:27:08.181Z,11.9
2019-03-06T16:32:08.159Z,11.9
2019-03-06T16:37:08.210Z,11.9
2019-03-06T16:42:08.152Z,11.9
2019-03-06T16:47:08.912Z,11.9
2019-03-06T16:52:08.123Z,11.8
2019-03-06T16:57:08.113Z,11.8
2019-03-06T17:02:08.125Z,11.8
2019-03-06T17:07:08.063Z,11.8
2019-03-06T17:12:08.064Z,11.8
2019-03-06T17:17:08.119Z,11.8
2019-03-06T17:22:08.083Z,11.8
2019-03-06T17:27:08.052Z,11.8
2019-03-06T17:32:08.102Z,11.8
2019-03-06T17:37:08.058Z,11.7
2019-03-06T17:42:08.541Z,11.7
2019-03-06T17:47:08.156Z,11.8
2019-03-06T17:52:08.029Z,11.8
2019-03-06T17:57:09.270Z,11.8
2019-03-06T18:02:08.078Z,11.7
2019-03-06T18:07:08.035Z,11.7
2019-03-06T18:12:07.991Z,11.7
2019-03-06T18:17:08.045Z,11.7
2019-03-06T18:22:08.653Z,11.7
2019-03-06T18:27:08.011Z,11.7
2019-03-06T18:32:08.071Z,11.7
2019-03-06T18:37:08.348Z,11.7
2019-03-06T18:42:07.934Z,11.6
2019-03-06T18:47:07.962Z,11.6
2019-03-06T18:52:08.001Z,11.6
2019-03-06T18:57:07.939Z,11.6
2019-03-06T19:02:07.960Z,11.6
2019-03-06T19:07:07.991Z,11.6
2019-03-06T19:12:07.956Z,11.5
2019-03-06T19:17:07.931Z,11.6
2019-03-06T19:22:07.966Z,11.5
2019-03-06T19:27:07.950Z,11.5
2019-03-06T19:32:07.942Z,11.5
2019-03-06T19:37:07.910Z,11.5
2019-03-06T19:42:07.919Z,11.5
2019-03-06T19:47:08.769Z,11.4
2019-03-06T19:52:07.916Z,11.4
2019-03-06T19:57:07.938Z,11.4
2019-03-06T20:02:08.615Z,11.4
2019-03-06T20:07:25.980Z,11.4
2019-03-06T20:11:56.879Z,11.4
2019-03-06T20:16:56.804Z,11.4
2019-03-06T20:21:56.816Z,11.4
2019-03-06T20:26:56.793Z,11.4
2019-03-06T20:31:56.769Z,11.4
2019-03-06T20:36:56.805Z,11.4
2019-03-06T20:42:08.906Z,11.4
2019-03-06T20:46:56.772Z,11.4
2019-03-06T20:51:56.760Z,11.4
2019-03-06T20:56:56.720Z,11.3
2019-03-06T21:01:56.890Z,11.3
2019-03-06T21:06:57.454Z,11.3
2019-03-06T21:11:56.753Z,11.3
2019-03-06T21:16:56.728Z,11.3
2019-03-06T21:21:57.336Z,11.3
2019-03-06T21:26:56.746Z,11.3
2019-03-06T21:31:56.665Z,11.3
2019-03-06T21:36:56.810Z,11.3
2019-03-06T21:41:57.510Z,11.2
2019-03-06T21:46:57.467Z,11.2
2019-03-06T21:51:57.468Z,11.2
2019-03-06T21:56:57.490Z,11.3
2019-03-06T22:01:58.202Z,11.2
2019-03-06T22:06:58.186Z,11.2
2019-03-06T22:11:58.228Z,11.1
2019-03-06T22:16:58.157Z,11.1
2019-03-06T22:21:58.176Z,11.1
2019-03-06T22:26:58.141Z,11
2019-03-06T22:31:58.662Z,11
2019-03-06T22:36:58.196Z,11
2019-03-06T22:41:58.120Z,10.9
2019-03-06T22:46:58.561Z,11
2019-03-06T22:51:58.126Z,10.9
2019-03-06T22:56:59.068Z,10.9
2019-03-06T23:01:58.071Z,10.9
2019-03-06T23:06:58.109Z,10.8
2019-03-06T23:11:58.099Z,10.6
2019-03-06T23:16:58.066Z,10.6
2019-03-06T23:21:59.928Z,10.5
2019-03-06T23:26:58.034Z,10.6
2019-03-06T23:31:58.879Z,10.6
2019-03-06T23:36:58.859Z,10.6
2019-03-06T23:41:58.783Z,10.6
2019-03-06T23:46:58.802Z,10.6
2019-03-06T23:51:58.832Z,10.6
2019-03-06T23:56:58.786Z,10.7
